createdAt,value
2018-09-08T00:00:45.191Z,99.90
2018-09-08T00:03:14.479Z,99.90
2018-09-08T00:05:43.764Z,99.90
2018-09-08T00:08:13.042Z,99.90
2018-09-08T00:10:42.435Z,99.90
2018-09-08T00:13:11.670Z,99.90
2018-09-08T00:15:46.161Z,99.90
2018-09-08T00:18:20.383Z,99.90
2018-09-08T00:20:54.615Z,99.90
2018-09-08T00:23:29.162Z,99.90
2018-09-08T00:26:03.624Z,99.90
2018-09-08T00:28:38.748Z,99.90
2018-09-08T00:31:12.060Z,99.90
2018-09-08T00:33:41.374Z,99.90
2018-09-08T00:36:10.743Z,99.90
2018-09-08T00:38:40.363Z,99.90
2018-09-08T00:41:09.733Z,99.90
2018-09-08T00:43:39.059Z,99.90
2018-09-08T00:46:09.110Z,99.90
2018-09-08T00:48:38.325Z,99.90
2018-09-08T00:51:07.682Z,99.90
2018-09-08T00:53:36.874Z,99.90
2018-09-08T00:56:06.175Z,99.90
2018-09-08T00:58:35.435Z,99.90
2018-09-08T01:01:04.892Z,99.90
2018-09-08T01:03:34.304Z,99.90
2018-09-08T01:06:03.619Z,99.90
2018-09-08T01:08:32.959Z,99.90
2018-09-08T01:11:02.260Z,99.90
2018-09-08T01:13:31.580Z,99.90
2018-09-08T01:16:00.818Z,99.90
2018-09-08T01:18:30.225Z,99.90
2018-09-08T01:20:59.531Z,99.90
2018-09-08T01:23:28.830Z,99.90
2018-09-08T01:25:58.110Z,99.90
2018-09-08T01:28:27.309Z,99.90
2018-09-08T01:30:56.575Z,99.90
2018-09-08T01:33:26.128Z,99.90
2018-09-08T01:35:55.606Z,99.90
2018-09-08T01:38:24.890Z,99.90
2018-09-08T01:40:54.295Z,99.90
2018-09-08T01:43:23.712Z,99.90
2018-09-08T01:45:52.995Z,99.90
2018-09-08T01:48:22.438Z,99.90
2018-09-08T01:50:51.758Z,99.90
2018-09-08T01:53:21.091Z,99.90
2018-09-08T01:55:50.357Z,99.90
2018-09-08T01:58:19.676Z,99.90
2018-09-08T02:00:49.015Z,99.90
2018-09-08T02:03:18.435Z,99.90
2018-09-08T02:05:47.890Z,99.90
2018-09-08T02:08:17.362Z,99.90
2018-09-08T02:10:46.772Z,99.90
2018-09-08T02:13:16.081Z,99.90
2018-09-08T02:15:45.388Z,99.90
2018-09-08T02:18:15.070Z,99.90
2018-09-08T02:20:44.339Z,99.90
2018-09-08T02:23:13.639Z,99.90
2018-09-08T02:25:42.959Z,99.90
2018-09-08T02:28:12.335Z,99.90
2018-09-08T02:30:41.569Z,99.90
2018-09-08T02:33:10.887Z,99.90
2018-09-08T02:35:40.174Z,99.90
2018-09-08T02:38:09.499Z,99.90
2018-09-08T02:40:38.789Z,99.90
2018-09-08T02:43:08.113Z,99.90
2018-09-08T02:45:37.338Z,99.90
2018-09-08T02:48:06.702Z,99.90
2018-09-08T02:50:35.758Z,99.90
2018-09-08T02:53:04.046Z,99.90
2018-09-08T02:55:32.182Z,99.90
2018-09-08T02:58:00.181Z,99.90
2018-09-08T03:00:28.480Z,99.90
2018-09-08T03:02:56.274Z,99.90
2018-09-08T03:05:24.293Z,99.90
2018-09-08T03:07:52.102Z,99.90
2018-09-08T03:10:20.455Z,99.90
2018-09-08T03:12:48.196Z,99.90
2018-09-08T03:15:15.958Z,99.90
2018-09-08T03:17:43.662Z,99.90
2018-09-08T03:20:11.425Z,99.90
2018-09-08T03:22:39.142Z,99.90
2018-09-08T03:25:06.868Z,99.90
2018-09-08T03:27:34.625Z,99.90
2018-09-08T03:30:02.383Z,99.90
2018-09-08T03:32:30.091Z,99.90
2018-09-08T03:35:04.270Z,99.90
2018-09-08T03:37:31.998Z,99.90
2018-09-08T03:39:59.744Z,99.90
2018-09-08T03:42:27.471Z,99.90
2018-09-08T03:44:55.202Z,99.90
2018-09-08T03:47:22.906Z,99.90
2018-09-08T03:49:50.666Z,99.90
2018-09-08T03:52:18.373Z,99.90
2018-09-08T03:54:46.163Z,99.90
2018-09-08T03:57:13.898Z,99.90
2018-09-08T03:59:41.634Z,99.90
2018-09-08T04:02:09.307Z,99.90
2018-09-08T04:04:38.596Z,99.90
2018-09-08T04:07:07.911Z,99.90
2018-09-08T04:09:37.246Z,99.90
2018-09-08T04:12:06.514Z,99.90
2018-09-08T04:14:35.800Z,99.90
2018-09-08T04:17:06.106Z,99.90
2018-09-08T04:19:35.361Z,99.90
2018-09-08T04:22:04.631Z,99.90
2018-09-08T04:24:33.914Z,99.90
2018-09-08T04:27:03.151Z,99.90
2018-09-08T04:29:32.489Z,99.90
2018-09-08T04:32:01.798Z,99.90
2018-09-08T04:34:31.105Z,99.90
2018-09-08T04:37:00.397Z,99.90
2018-09-08T04:39:29.662Z,99.90
2018-09-08T04:41:58.908Z,99.90
2018-09-08T04:44:28.267Z,99.90
2018-09-08T04:46:57.609Z,99.90
2018-09-08T04:49:26.916Z,99.90
2018-09-08T04:51:56.175Z,99.90
2018-09-08T04:54:25.478Z,99.90
2018-09-08T04:56:54.734Z,99.90
2018-09-08T04:59:23.959Z,99.90
2018-09-08T05:01:53.287Z,99.90
2018-09-08T05:04:22.520Z,99.90
2018-09-08T05:06:51.906Z,99.90
2018-09-08T05:09:21.138Z,99.90
2018-09-08T05:11:50.458Z,99.90
2018-09-08T05:14:19.701Z,99.90
2018-09-08T05:16:48.980Z,99.90
2018-09-08T05:19:18.263Z,99.90
2018-09-08T05:21:47.605Z,99.90
2018-09-08T05:24:16.790Z,99.90
2018-09-08T05:26:46.081Z,99.90
2018-09-08T05:29:15.381Z,99.90
2018-09-08T05:31:44.794Z,99.90
2018-09-08T05:34:14.058Z,99.90
2018-09-08T05:36:43.415Z,99.90
2018-09-08T05:39:12.701Z,99.90
2018-09-08T05:41:41.982Z,99.90
2018-09-08T05:44:11.278Z,99.90
2018-09-08T05:46:40.646Z,99.90
2018-09-08T05:49:09.995Z,99.90
2018-09-08T05:51:39.377Z,99.90
2018-09-08T05:54:08.713Z,99.90
2018-09-08T05:56:38.011Z,99.90
2018-09-08T05:59:07.302Z,99.90
2018-09-08T06:01:36.643Z,99.90
2018-09-08T06:04:05.916Z,99.90
2018-09-08T06:06:35.201Z,99.90
2018-09-08T06:09:05.530Z,99.90
2018-09-08T06:11:34.817Z,99.90
2018-09-08T06:14:04.071Z,99.90
2018-09-08T06:16:33.424Z,99.90
2018-09-08T06:19:02.668Z,99.90
2018-09-08T06:21:32.410Z,99.90
2018-09-08T06:24:01.698Z,99.90
2018-09-08T06:26:31.138Z,99.90
2018-09-08T06:29:00.475Z,99.90
2018-09-08T06:31:29.775Z,99.90
2018-09-08T06:33:59.101Z,99.90
2018-09-08T06:36:28.387Z,99.90
2018-09-08T06:38:57.704Z,99.90
2018-09-08T06:41:27.066Z,99.90
2018-09-08T06:43:56.379Z,99.90
2018-09-08T06:46:25.707Z,99.90
2018-09-08T06:48:55.078Z,99.90
2018-09-08T06:51:24.580Z,99.90
2018-09-08T06:53:53.994Z,99.90
2018-09-08T06:56:23.298Z,99.90
2018-09-08T06:58:52.651Z,99.90
2018-09-08T07:01:21.970Z,99.90
2018-09-08T07:03:51.254Z,99.90
2018-09-08T07:06:20.548Z,99.90
2018-09-08T07:08:49.848Z,99.90
2018-09-08T07:11:19.056Z,99.90
2018-09-08T07:13:48.377Z,99.90
2018-09-08T07:16:17.662Z,99.90
2018-09-08T07:18:47.182Z,99.90
2018-09-08T07:21:16.503Z,99.90
2018-09-08T07:23:45.896Z,99.90
2018-09-08T07:26:15.255Z,99.90
2018-09-08T07:28:44.549Z,99.90
2018-09-08T07:31:13.893Z,99.90
2018-09-08T07:33:43.226Z,99.90
2018-09-08T07:36:12.503Z,99.90
2018-09-08T07:38:41.857Z,99.90
2018-09-08T07:41:11.104Z,99.90
2018-09-08T07:43:40.490Z,99.90
2018-09-08T07:46:10.086Z,99.90
2018-09-08T07:48:39.549Z,99.90
2018-09-08T07:51:08.866Z,99.90
2018-09-08T07:53:38.468Z,99.90
2018-09-08T07:56:07.609Z,99.90
2018-09-08T07:58:36.933Z,99.90
2018-09-08T08:01:06.232Z,99.90
2018-09-08T08:03:35.614Z,99.90
2018-09-08T08:06:04.890Z,99.90
2018-09-08T08:08:34.226Z,99.90
2018-09-08T08:11:03.511Z,99.90
2018-09-08T08:13:32.814Z,99.90
2018-09-08T08:16:02.113Z,99.90
2018-09-08T08:18:31.399Z,99.90
2018-09-08T08:21:00.723Z,99.90
2018-09-08T08:23:30.070Z,99.90
2018-09-08T08:25:59.387Z,99.90
2018-09-08T08:28:28.706Z,99.90
2018-09-08T08:30:58.074Z,99.90
2018-09-08T08:33:27.403Z,99.90
2018-09-08T08:35:56.900Z,99.90
2018-09-08T08:38:26.252Z,99.90
2018-09-08T08:40:55.526Z,99.90
2018-09-08T08:43:25.006Z,99.90
2018-09-08T08:45:54.294Z,99.90
2018-09-08T08:48:23.612Z,99.90
2018-09-08T08:52:02.140Z,99.90
2018-09-08T08:54:34.091Z,99.90
2018-09-08T08:57:03.394Z,99.90
2018-09-08T08:59:32.698Z,99.90
2018-09-08T09:02:02.098Z,99.90
2018-09-08T09:04:31.361Z,99.90
2018-09-08T09:07:00.770Z,99.90
2018-09-08T09:09:30.114Z,99.90
2018-09-08T09:11:59.458Z,99.90
2018-09-08T09:14:29.099Z,99.90
2018-09-08T09:17:00.171Z,99.90
2018-09-08T09:19:41.313Z,99.90
2018-09-08T09:22:23.094Z,99.90
2018-09-08T09:24:57.527Z,99.90
2018-09-08T09:27:40.399Z,99.90
2018-09-08T09:30:10.376Z,99.90
2018-09-08T09:32:39.724Z,99.90
2018-09-08T09:35:10.760Z,99.90
2018-09-08T09:37:40.022Z,99.60
2018-09-08T09:40:10.128Z,97.30
2018-09-08T09:42:39.518Z,95.60
2018-09-08T09:45:09.797Z,98.80
2018-09-08T09:47:39.103Z,99.50
2018-09-08T09:50:09.947Z,97.60
2018-09-08T09:52:39.461Z,97.70
2018-09-08T09:55:09.067Z,99.70
2018-09-08T09:57:38.413Z,96.50
2018-09-08T10:00:09.460Z,99.90
2018-09-08T10:02:45.729Z,95.40
2018-09-08T10:05:18.637Z,94.20
2018-09-08T10:07:48.166Z,98.20
2018-09-08T10:10:21.005Z,94.40
2018-09-08T10:12:50.270Z,93.50
2018-09-08T10:15:19.599Z,93.20
2018-09-08T10:17:48.910Z,95.90
2018-09-08T10:20:19.666Z,94.40
2018-09-08T10:22:48.983Z,94.20
2018-09-08T10:25:19.248Z,92.30
2018-09-08T10:27:55.394Z,94.20
2018-09-08T10:30:24.758Z,94.40
2018-09-08T10:32:55.153Z,96.30
2018-09-08T10:35:24.421Z,94.40
2018-09-08T10:37:53.655Z,94.60
2018-09-08T10:40:23.036Z,94.80
2018-09-08T10:42:52.322Z,91.30
2018-09-08T10:45:21.680Z,90.40
2018-09-08T10:47:51.063Z,95.30
2018-09-08T10:50:20.407Z,96.60
2018-09-08T10:52:49.934Z,87.60
2018-09-08T10:55:19.182Z,89.30
2018-09-08T10:57:48.457Z,87.10
2018-09-08T11:00:18.372Z,86.80
2018-09-08T11:02:48.621Z,88.00
2018-09-08T11:05:19.148Z,83.80
2018-09-08T11:07:48.935Z,85.20
2018-09-08T11:10:21.598Z,83.20
2018-09-08T11:12:52.890Z,88.20
2018-09-08T11:15:23.730Z,85.20
2018-09-08T11:17:53.705Z,79.40
2018-09-08T11:20:24.609Z,79.60
2018-09-08T11:22:54.514Z,84.20
2018-09-08T11:25:24.810Z,82.50
2018-09-08T11:27:54.922Z,80.00
2018-09-08T11:30:26.062Z,83.30
2018-09-08T11:32:56.878Z,77.50
2018-09-08T11:35:27.618Z,74.60
2018-09-08T11:37:58.368Z,73.70
2018-09-08T11:40:27.755Z,73.70
2018-09-08T11:42:57.022Z,75.60
2018-09-08T11:45:26.325Z,78.50
2018-09-08T11:47:55.650Z,76.40
2018-09-08T11:50:24.927Z,75.30
2018-09-08T11:52:54.280Z,76.70
2018-09-08T11:55:23.866Z,74.10
2018-09-08T11:57:53.154Z,73.80
2018-09-08T12:00:22.919Z,71.60
2018-09-08T12:02:52.211Z,71.60
2018-09-08T12:05:21.542Z,70.40
2018-09-08T12:07:50.883Z,70.40
2018-09-08T12:10:20.134Z,66.70
2018-09-08T12:12:49.515Z,66.40
2018-09-08T12:15:18.832Z,72.50
2018-09-08T12:17:48.047Z,67.20
2018-09-08T12:20:17.306Z,65.80
2018-09-08T12:22:46.602Z,68.30
2018-09-08T12:25:16.390Z,68.80
2018-09-08T12:27:46.257Z,68.10
2018-09-08T12:30:16.101Z,66.00
2018-09-08T12:32:45.798Z,64.90
2018-09-08T12:35:15.592Z,65.60
2018-09-08T12:37:45.134Z,66.20
2018-09-08T12:40:15.036Z,63.00
2018-09-08T12:42:44.663Z,66.00
2018-09-08T12:45:14.459Z,65.00
2018-09-08T12:47:44.309Z,69.20
2018-09-08T12:50:14.184Z,69.40
2018-09-08T12:52:44.441Z,66.90
2018-09-08T12:55:14.132Z,64.70
2018-09-08T12:57:44.927Z,64.80
2018-09-08T13:00:14.360Z,62.30
2018-09-08T13:02:43.613Z,65.30
2018-09-08T13:05:12.886Z,65.90
2018-09-08T13:07:42.098Z,61.00
2018-09-08T13:10:11.435Z,62.40
2018-09-08T13:12:40.662Z,60.20
2018-09-08T13:15:10.026Z,59.90
2018-09-08T13:17:39.303Z,62.30
2018-09-08T13:20:08.615Z,60.20
2018-09-08T13:22:38.156Z,60.80
2018-09-08T13:25:08.195Z,60.70
2018-09-08T13:27:37.862Z,58.60
2018-09-08T13:30:07.937Z,59.40
2018-09-08T13:32:38.790Z,58.30
2018-09-08T13:35:08.828Z,61.10
2018-09-08T13:37:38.352Z,61.60
2018-09-08T13:40:09.092Z,62.40
2018-09-08T13:42:39.247Z,59.70
2018-09-08T13:45:09.408Z,60.30
2018-09-08T13:47:39.369Z,58.70
2018-09-08T13:50:11.302Z,58.70
2018-09-08T13:52:42.006Z,60.30
2018-09-08T13:55:12.543Z,60.80
2018-09-08T13:57:47.388Z,57.50
2018-09-08T14:00:19.234Z,58.90
2018-09-08T14:02:50.556Z,57.70
2018-09-08T14:05:27.579Z,59.70
2018-09-08T14:08:08.477Z,62.90
2018-09-08T14:10:42.270Z,62.10
2018-09-08T14:13:11.588Z,58.00
2018-09-08T14:15:40.850Z,60.30
2018-09-08T14:18:10.625Z,58.50
2018-09-08T14:20:40.970Z,56.10
2018-09-08T14:23:10.572Z,56.30
2018-09-08T14:25:40.558Z,57.40
2018-09-08T14:28:10.267Z,55.30
2018-09-08T14:30:39.727Z,57.00
2018-09-08T14:33:09.153Z,56.40
2018-09-08T14:35:38.909Z,57.00
2018-09-08T14:38:08.334Z,56.90
2018-09-08T14:40:37.976Z,56.10
2018-09-08T14:43:07.569Z,57.10
2018-09-08T14:45:37.019Z,58.00
2018-09-08T14:48:06.616Z,55.90
2018-09-08T14:50:35.862Z,56.50
2018-09-08T14:53:05.242Z,56.20
2018-09-08T14:55:35.743Z,56.20
2018-09-08T14:58:05.007Z,56.80
2018-09-08T15:00:34.417Z,58.60
2018-09-08T15:03:03.799Z,57.40
2018-09-08T15:05:33.110Z,58.20
2018-09-08T15:08:02.566Z,57.50
2018-09-08T15:10:31.984Z,58.60
2018-09-08T15:13:01.884Z,58.80
2018-09-08T15:15:31.348Z,59.60
2018-09-08T15:18:00.886Z,58.50
2018-09-08T15:20:30.468Z,59.50
2018-09-08T15:23:00.070Z,58.40
2018-09-08T15:25:29.993Z,58.00
2018-09-08T15:27:59.952Z,56.70
2018-09-08T15:30:29.531Z,57.70
2018-09-08T15:32:59.224Z,59.20
2018-09-08T15:35:29.044Z,59.00
2018-09-08T15:38:00.849Z,59.60
2018-09-08T15:40:30.095Z,58.70
2018-09-08T15:42:59.358Z,58.70
2018-09-08T15:45:28.666Z,58.80
2018-09-08T15:47:57.970Z,59.40
2018-09-08T15:50:27.698Z,59.00
2018-09-08T15:52:57.018Z,58.20
2018-09-08T15:55:26.279Z,58.60
2018-09-08T15:57:56.214Z,59.30
2018-09-08T16:00:25.925Z,58.30
2018-09-08T16:02:55.706Z,59.00
2018-09-08T16:05:25.476Z,59.60
2018-09-08T16:07:55.227Z,59.00
2018-09-08T16:10:25.002Z,58.80
2018-09-08T16:12:54.765Z,58.80
2018-09-08T16:15:24.735Z,59.30
2018-09-08T16:17:54.349Z,59.50
2018-09-08T16:20:24.212Z,58.80
2018-09-08T16:22:53.822Z,59.50
2018-09-08T16:25:23.729Z,60.00
2018-09-08T16:27:53.006Z,60.60
2018-09-08T16:30:41.335Z,60.90
2018-09-08T16:33:10.652Z,61.00
2018-09-08T16:35:40.162Z,61.60
2018-09-08T16:38:09.424Z,61.30
2018-09-08T16:40:39.369Z,60.70
2018-09-08T16:43:08.654Z,61.10
2018-09-08T16:45:38.135Z,60.70
2018-09-08T16:48:07.463Z,61.50
2018-09-08T16:50:36.755Z,61.60
2018-09-08T16:53:06.466Z,62.20
2018-09-08T16:55:35.845Z,62.10
2018-09-08T16:58:05.199Z,61.80
2018-09-08T17:00:34.579Z,62.00
2018-09-08T17:03:03.915Z,62.00
2018-09-08T17:05:33.360Z,62.30
2018-09-08T17:08:02.556Z,61.60
2018-09-08T17:10:31.874Z,62.80
2018-09-08T17:13:01.138Z,63.50
2018-09-08T17:15:30.407Z,64.40
2018-09-08T17:17:59.670Z,64.50
2018-09-08T17:20:28.946Z,64.30
2018-09-08T17:22:58.263Z,65.00
2018-09-08T17:25:27.489Z,66.10
2018-09-08T17:27:56.741Z,67.00
2018-09-08T17:30:26.026Z,69.30
2018-09-08T17:32:55.262Z,69.60
2018-09-08T17:35:24.502Z,69.70
2018-09-08T17:37:53.914Z,69.20
2018-09-08T17:40:23.372Z,69.40
2018-09-08T17:42:52.763Z,70.80
2018-09-08T17:45:22.001Z,71.20
2018-09-08T17:47:51.346Z,71.30
2018-09-08T17:50:20.687Z,71.00
2018-09-08T17:52:49.979Z,72.00
2018-09-08T17:55:19.234Z,70.60
2018-09-08T17:57:48.619Z,72.30
2018-09-08T18:00:18.065Z,73.30
2018-09-08T18:02:47.419Z,73.20
2018-09-08T18:05:16.672Z,74.50
2018-09-08T18:07:46.009Z,74.60
2018-09-08T18:10:15.299Z,75.10
2018-09-08T18:12:44.604Z,75.10
2018-09-08T18:15:13.814Z,75.40
2018-09-08T18:17:43.134Z,75.40
2018-09-08T18:20:12.382Z,75.60
2018-09-08T18:22:41.648Z,74.90
2018-09-08T18:25:10.979Z,75.70
2018-09-08T18:27:40.259Z,77.00
2018-09-08T18:30:09.628Z,76.70
2018-09-08T18:32:39.057Z,76.90
2018-09-08T18:35:09.319Z,76.90
2018-09-08T18:37:38.638Z,77.70
2018-09-08T18:40:09.128Z,78.90
2018-09-08T18:42:38.331Z,79.20
2018-09-08T18:45:07.567Z,79.00
2018-09-08T18:47:36.906Z,79.40
2018-09-08T18:50:06.263Z,77.60
2018-09-08T18:52:35.551Z,82.00
2018-09-08T18:55:04.835Z,83.50
2018-09-08T18:57:34.223Z,83.10
2018-09-08T19:00:03.550Z,79.40
2018-09-08T19:02:32.831Z,82.10
2018-09-08T19:05:02.130Z,80.80
2018-09-08T19:07:31.442Z,83.00
2018-09-08T19:10:04.653Z,80.80
2018-09-08T19:12:34.904Z,79.50
2018-09-08T19:15:09.323Z,83.40
2018-09-08T19:17:38.713Z,84.90
2018-09-08T19:20:13.016Z,85.10
2018-09-08T19:22:42.422Z,85.40
2018-09-08T19:25:11.751Z,84.80
2018-09-08T19:27:41.031Z,87.10
2018-09-08T19:30:10.308Z,89.70
2018-09-08T19:32:39.607Z,89.50
2018-09-08T19:35:14.061Z,90.20
2018-09-08T19:37:43.379Z,90.00
2018-09-08T19:40:17.871Z,89.20
2018-09-08T19:42:47.219Z,90.40
2018-09-08T19:45:16.489Z,88.70
2018-09-08T19:47:50.903Z,84.70
2018-09-08T19:50:20.228Z,91.70
2018-09-08T19:52:58.135Z,88.70
2018-09-08T19:55:27.427Z,93.80
2018-09-08T19:58:01.855Z,94.10
2018-09-08T20:00:31.561Z,94.80
2018-09-08T20:03:01.138Z,95.70
2018-09-08T20:05:30.494Z,95.80
2018-09-08T20:07:59.827Z,95.80
2018-09-08T20:10:29.131Z,94.40
2018-09-08T20:12:58.421Z,97.40
2018-09-08T20:15:27.771Z,96.60
2018-09-08T20:17:57.001Z,98.00
2018-09-08T20:20:26.306Z,97.50
2018-09-08T20:22:55.560Z,98.60
2018-09-08T20:25:24.855Z,99.90
2018-09-08T20:27:54.164Z,99.90
2018-09-08T20:30:23.490Z,99.90
2018-09-08T20:32:52.818Z,99.20
2018-09-08T20:35:22.130Z,99.90
2018-09-08T20:37:52.513Z,99.90
2018-09-08T20:40:21.846Z,99.90
2018-09-08T20:42:51.150Z,99.90
2018-09-08T20:45:20.554Z,99.90
2018-09-08T20:47:49.883Z,99.90
2018-09-08T20:50:19.471Z,99.90
2018-09-08T20:52:48.749Z,99.90
2018-09-08T20:55:18.758Z,99.90
2018-09-08T20:57:48.038Z,99.90
2018-09-08T21:00:17.325Z,99.90
2018-09-08T21:02:46.656Z,99.90
2018-09-08T21:05:15.959Z,99.90
2018-09-08T21:07:45.258Z,99.90
2018-09-08T21:10:14.557Z,99.90
2018-09-08T21:12:43.782Z,99.90
2018-09-08T21:15:14.151Z,99.90
2018-09-08T21:17:43.395Z,99.90
2018-09-08T21:20:12.691Z,99.90
2018-09-08T21:22:41.972Z,99.90
2018-09-08T21:25:11.286Z,99.90
2018-09-08T21:27:40.583Z,99.90
2018-09-08T21:30:09.874Z,99.90
2018-09-08T21:32:39.151Z,99.90
2018-09-08T21:35:08.523Z,99.90
2018-09-08T21:37:37.765Z,99.90
2018-09-08T21:40:07.114Z,99.90
2018-09-08T21:42:36.423Z,99.90
2018-09-08T21:45:05.855Z,99.90
2018-09-08T21:47:35.254Z,99.90
2018-09-08T21:50:04.566Z,99.90
2018-09-08T21:52:33.878Z,99.90
2018-09-08T21:55:03.139Z,99.90
2018-09-08T21:57:40.130Z,99.90
2018-09-08T22:00:09.951Z,99.90
2018-09-08T22:02:39.262Z,99.90
2018-09-08T22:05:08.661Z,99.90
2018-09-08T22:07:38.326Z,99.90
2018-09-08T22:10:07.625Z,99.90
2018-09-08T22:12:36.920Z,99.90
2018-09-08T22:15:06.319Z,99.90
2018-09-08T22:17:35.620Z,99.90
2018-09-08T22:20:04.938Z,99.90
2018-09-08T22:22:34.271Z,99.90
2018-09-08T22:25:03.621Z,99.90
2018-09-08T22:27:32.967Z,99.90
2018-09-08T22:30:02.185Z,99.90
2018-09-08T22:32:31.411Z,99.90
2018-09-08T22:35:00.728Z,99.90
2018-09-08T22:37:29.976Z,99.90
2018-09-08T22:39:59.274Z,99.90
2018-09-08T22:42:28.583Z,99.90
2018-09-08T22:44:57.849Z,99.90
2018-09-08T22:47:27.138Z,99.90
2018-09-08T22:49:56.493Z,99.90
2018-09-08T22:52:25.773Z,99.90
2018-09-08T22:54:54.999Z,99.90
2018-09-08T22:57:24.308Z,99.90
2018-09-08T22:59:53.602Z,99.90
2018-09-08T23:02:22.903Z,99.90
2018-09-08T23:04:52.233Z,99.90
2018-09-08T23:07:21.618Z,99.90
2018-09-08T23:09:50.951Z,99.90
2018-09-08T23:12:20.279Z,99.90
2018-09-08T23:14:49.555Z,99.90
2018-09-08T23:17:18.815Z,99.90
2018-09-08T23:19:48.130Z,99.90
2018-09-08T23:22:17.472Z,99.90
2018-09-08T23:24:46.717Z,99.90
2018-09-08T23:27:15.986Z,99.90
2018-09-08T23:29:45.286Z,99.90
2018-09-08T23:32:14.622Z,99.90
2018-09-08T23:34:43.921Z,99.90
2018-09-08T23:37:13.187Z,99.90
2018-09-08T23:39:42.451Z,99.90
2018-09-08T23:42:11.702Z,99.90
2018-09-08T23:44:40.993Z,99.90
2018-09-08T23:47:10.254Z,99.90
2018-09-08T23:49:39.547Z,99.90
2018-09-08T23:52:08.889Z,99.90
2018-09-08T23:54:38.432Z,99.90
2018-09-08T23:57:07.782Z,99.90
2018-09-08T23:59:37.028Z,99.90
